sensor_id;sensor_type;location;lat;lon;timestamp;P1;durP1;ratioP1;P2;durP2;ratioP2
65971;SDS011;52726;48.852;9.152;2023-04-08T00:02:07;7.18;;;4.78;;
65971;SDS011;52726;48.852;9.152;2023-04-08T00:04:32;10.52;;;6.18;;
65971;SDS011;52726;48.852;9.152;2023-04-08T00:06:57;12.48;;;6.53;;
65971;SDS011;52726;48.852;9.152;2023-04-08T00:09:23;11.32;;;6.55;;
65971;SDS011;52726;48.852;9.152;2023-04-08T00:11:48;7.28;;;5.10;;
65971;SDS011;52726;48.852;9.152;2023-04-08T00:17:18;9.65;;;5.40;;
65971;SDS011;52726;48.852;9.152;2023-04-08T00:19:43;12.27;;;6.78;;
65971;SDS011;52726;48.852;9.152;2023-04-08T00:22:13;10.88;;;5.38;;
65971;SDS011;52726;48.852;9.152;2023-04-08T00:24:39;9.98;;;5.18;;
65971;SDS011;52726;48.852;9.152;2023-04-08T00:27:04;9.98;;;6.63;;
65971;SDS011;52726;48.852;9.152;2023-04-08T00:29:30;8.77;;;5.30;;
65971;SDS011;52726;48.852;9.152;2023-04-08T00:31:56;9.85;;;5.65;;
65971;SDS011;52726;48.852;9.152;2023-04-08T00:37:43;8.50;;;5.10;;
65971;SDS011;52726;48.852;9.152;2023-04-08T00:42:57;12.23;;;5.85;;
65971;SDS011;52726;48.852;9.152;2023-04-08T00:45:22;10.77;;;6.20;;
65971;SDS011;52726;48.852;9.152;2023-04-08T00:47:48;10.38;;;6.10;;
65971;SDS011;52726;48.852;9.152;2023-04-08T00:50:16;7.65;;;5.20;;
65971;SDS011;52726;48.852;9.152;2023-04-08T00:52:42;11.77;;;6.72;;
65971;SDS011;52726;48.852;9.152;2023-04-08T00:55:07;10.15;;;5.35;;
65971;SDS011;52726;48.852;9.152;2023-04-08T00:57:33;11.70;;;6.05;;
65971;SDS011;52726;48.852;9.152;2023-04-08T00:59:59;11.05;;;5.82;;
65971;SDS011;52726;48.852;9.152;2023-04-08T01:02:30;8.05;;;5.00;;
65971;SDS011;52726;48.852;9.152;2023-04-08T01:07:33;8.55;;;5.22;;
65971;SDS011;52726;48.852;9.152;2023-04-08T01:10:01;8.82;;;5.68;;
65971;SDS011;52726;48.852;9.152;2023-04-08T01:12:30;8.65;;;5.43;;
65971;SDS011;52726;48.852;9.152;2023-04-08T01:15:04;7.78;;;5.70;;
65971;SDS011;52726;48.852;9.152;2023-04-08T01:17:32;9.15;;;5.40;;
65971;SDS011;52726;48.852;9.152;2023-04-08T01:19:59;13.10;;;6.68;;
65971;SDS011;52726;48.852;9.152;2023-04-08T01:22:28;11.48;;;6.30;;
65971;SDS011;52726;48.852;9.152;2023-04-08T01:25:16;12.15;;;6.47;;
65971;SDS011;52726;48.852;9.152;2023-04-08T01:27:45;9.68;;;6.57;;
65971;SDS011;52726;48.852;9.152;2023-04-08T01:30:13;10.32;;;6.75;;
65971;SDS011;52726;48.852;9.152;2023-04-08T01:32:41;10.68;;;7.10;;
65971;SDS011;52726;48.852;9.152;2023-04-08T01:35:08;12.63;;;6.85;;
65971;SDS011;52726;48.852;9.152;2023-04-08T01:37:34;12.32;;;7.47;;
65971;SDS011;52726;48.852;9.152;2023-04-08T01:40:01;9.25;;;6.50;;
65971;SDS011;52726;48.852;9.152;2023-04-08T01:42:27;10.73;;;7.18;;
65971;SDS011;52726;48.852;9.152;2023-04-08T01:44:54;11.65;;;7.32;;
65971;SDS011;52726;48.852;9.152;2023-04-08T01:47:21;11.63;;;6.90;;
65971;SDS011;52726;48.852;9.152;2023-04-08T01:49:49;12.35;;;6.47;;
65971;SDS011;52726;48.852;9.152;2023-04-08T01:52:15;9.80;;;6.65;;
65971;SDS011;52726;48.852;9.152;2023-04-08T01:54:43;12.20;;;6.20;;
65971;SDS011;52726;48.852;9.152;2023-04-08T01:57:10;10.95;;;6.78;;
65971;SDS011;52726;48.852;9.152;2023-04-08T01:59:38;11.88;;;6.18;;
65971;SDS011;52726;48.852;9.152;2023-04-08T02:02:05;13.70;;;7.25;;
65971;SDS011;52726;48.852;9.152;2023-04-08T02:04:34;10.30;;;6.03;;
65971;SDS011;52726;48.852;9.152;2023-04-08T02:07:00;15.85;;;7.55;;
65971;SDS011;52726;48.852;9.152;2023-04-08T02:09:26;11.00;;;6.97;;
65971;SDS011;52726;48.852;9.152;2023-04-08T02:11:52;9.77;;;6.63;;
65971;SDS011;52726;48.852;9.152;2023-04-08T02:14:17;12.88;;;6.72;;
65971;SDS011;52726;48.852;9.152;2023-04-08T02:16:45;11.35;;;6.82;;
65971;SDS011;52726;48.852;9.152;2023-04-08T02:19:23;12.25;;;7.47;;
65971;SDS011;52726;48.852;9.152;2023-04-08T02:21:53;13.00;;;7.50;;
65971;SDS011;52726;48.852;9.152;2023-04-08T02:24:21;13.48;;;7.38;;
65971;SDS011;52726;48.852;9.152;2023-04-08T02:26:47;11.35;;;7.40;;
65971;SDS011;52726;48.852;9.152;2023-04-08T02:29:15;11.85;;;6.85;;
65971;SDS011;52726;48.852;9.152;2023-04-08T02:31:42;16.35;;;7.70;;
65971;SDS011;52726;48.852;9.152;2023-04-08T02:34:11;12.25;;;6.82;;
65971;SDS011;52726;48.852;9.152;2023-04-08T02:36:38;13.25;;;7.28;;
65971;SDS011;52726;48.852;9.152;2023-04-08T02:39:05;14.85;;;7.63;;
65971;SDS011;52726;48.852;9.152;2023-04-08T02:41:30;12.35;;;7.20;;
65971;SDS011;52726;48.852;9.152;2023-04-08T02:43:56;11.85;;;6.95;;
65971;SDS011;52726;48.852;9.152;2023-04-08T02:46:21;12.05;;;6.50;;
65971;SDS011;52726;48.852;9.152;2023-04-08T02:48:47;11.48;;;6.38;;
65971;SDS011;52726;48.852;9.152;2023-04-08T02:51:12;12.07;;;7.00;;
65971;SDS011;52726;48.852;9.152;2023-04-08T02:53:38;13.75;;;7.90;;
65971;SDS011;52726;48.852;9.152;2023-04-08T02:56:03;12.82;;;6.95;;
65971;SDS011;52726;48.852;9.152;2023-04-08T02:58:29;14.48;;;7.05;;
65971;SDS011;52726;48.852;9.152;2023-04-08T03:00:54;13.88;;;7.40;;
65971;SDS011;52726;48.852;9.152;2023-04-08T03:03:20;15.20;;;7.68;;
65971;SDS011;52726;48.852;9.152;2023-04-08T03:05:51;15.45;;;6.82;;
65971;SDS011;52726;48.852;9.152;2023-04-08T03:08:17;16.33;;;7.80;;
65971;SDS011;52726;48.852;9.152;2023-04-08T03:10:43;15.65;;;8.82;;
65971;SDS011;52726;48.852;9.152;2023-04-08T03:13:08;13.40;;;7.30;;
65971;SDS011;52726;48.852;9.152;2023-04-08T03:15:33;18.35;;;7.30;;
65971;SDS011;52726;48.852;9.152;2023-04-08T03:17:59;15.38;;;8.27;;
65971;SDS011;52726;48.852;9.152;2023-04-08T03:20:24;15.60;;;7.32;;
65971;SDS011;52726;48.852;9.152;2023-04-08T03:22:49;17.48;;;8.35;;
65971;SDS011;52726;48.852;9.152;2023-04-08T03:25:15;16.02;;;8.32;;
65971;SDS011;52726;48.852;9.152;2023-04-08T03:27:40;16.63;;;7.45;;
65971;SDS011;52726;48.852;9.152;2023-04-08T03:30:06;19.10;;;7.93;;
65971;SDS011;52726;48.852;9.152;2023-04-08T03:32:32;15.35;;;7.65;;
65971;SDS011;52726;48.852;9.152;2023-04-08T03:34:57;17.35;;;8.10;;
65971;SDS011;52726;48.852;9.152;2023-04-08T03:37:22;17.40;;;7.47;;
65971;SDS011;52726;48.852;9.152;2023-04-08T03:39:48;18.67;;;8.07;;
65971;SDS011;52726;48.852;9.152;2023-04-08T03:42:13;19.08;;;7.78;;
65971;SDS011;52726;48.852;9.152;2023-04-08T03:44:38;12.90;;;7.45;;
65971;SDS011;52726;48.852;9.152;2023-04-08T03:47:04;18.98;;;7.55;;
65971;SDS011;52726;48.852;9.152;2023-04-08T03:49:29;15.75;;;7.75;;
65971;SDS011;52726;48.852;9.152;2023-04-08T03:51:54;13.80;;;7.95;;
65971;SDS011;52726;48.852;9.152;2023-04-08T03:54:20;18.42;;;7.50;;
65971;SDS011;52726;48.852;9.152;2023-04-08T03:56:45;17.63;;;9.23;;
65971;SDS011;52726;48.852;9.152;2023-04-08T03:59:10;19.20;;;8.23;;
65971;SDS011;52726;48.852;9.152;2023-04-08T04:01:36;18.42;;;8.27;;
65971;SDS011;52726;48.852;9.152;2023-04-08T04:04:01;21.40;;;8.32;;
65971;SDS011;52726;48.852;9.152;2023-04-08T04:06:26;15.27;;;8.98;;
65971;SDS011;52726;48.852;9.152;2023-04-08T04:08:52;14.43;;;7.93;;
65971;SDS011;52726;48.852;9.152;2023-04-08T04:11:19;16.17;;;8.52;;
65971;SDS011;52726;48.852;9.152;2023-04-08T04:13:45;15.90;;;7.85;;
65971;SDS011;52726;48.852;9.152;2023-04-08T04:16:11;21.25;;;9.10;;
65971;SDS011;52726;48.852;9.152;2023-04-08T04:18:36;18.50;;;8.02;;
65971;SDS011;52726;48.852;9.152;2023-04-08T04:21:04;17.38;;;9.43;;
65971;SDS011;52726;48.852;9.152;2023-04-08T04:23:30;15.40;;;7.82;;
65971;SDS011;52726;48.852;9.152;2023-04-08T04:25:56;18.10;;;9.05;;
65971;SDS011;52726;48.852;9.152;2023-04-08T04:28:21;21.60;;;9.27;;
65971;SDS011;52726;48.852;9.152;2023-04-08T04:30:46;13.60;;;7.32;;
65971;SDS011;52726;48.852;9.152;2023-04-08T04:33:12;15.75;;;7.78;;
65971;SDS011;52726;48.852;9.152;2023-04-08T04:35:38;17.42;;;8.27;;
65971;SDS011;52726;48.852;9.152;2023-04-08T04:38:03;17.50;;;8.73;;
65971;SDS011;52726;48.852;9.152;2023-04-08T04:40:34;16.83;;;8.70;;
65971;SDS011;52726;48.852;9.152;2023-04-08T04:43:00;16.20;;;8.35;;
65971;SDS011;52726;48.852;9.152;2023-04-08T04:45:25;15.70;;;8.43;;
65971;SDS011;52726;48.852;9.152;2023-04-08T04:47:50;17.73;;;8.38;;
65971;SDS011;52726;48.852;9.152;2023-04-08T04:50:16;17.10;;;8.15;;
65971;SDS011;52726;48.852;9.152;2023-04-08T04:52:41;15.40;;;7.85;;
65971;SDS011;52726;48.852;9.152;2023-04-08T04:55:07;21.80;;;9.18;;
65971;SDS011;52726;48.852;9.152;2023-04-08T04:57:32;21.15;;;8.60;;
65971;SDS011;52726;48.852;9.152;2023-04-08T04:59:58;14.98;;;8.35;;
65971;SDS011;52726;48.852;9.152;2023-04-08T05:02:23;21.00;;;8.25;;
65971;SDS011;52726;48.852;9.152;2023-04-08T05:04:48;22.15;;;8.93;;
65971;SDS011;52726;48.852;9.152;2023-04-08T05:07:14;22.80;;;8.10;;
65971;SDS011;52726;48.852;9.152;2023-04-08T05:09:39;22.25;;;8.77;;
65971;SDS011;52726;48.852;9.152;2023-04-08T05:12:04;20.77;;;9.32;;
65971;SDS011;52726;48.852;9.152;2023-04-08T05:14:30;14.98;;;8.55;;
65971;SDS011;52726;48.852;9.152;2023-04-08T05:16:55;19.10;;;8.60;;
65971;SDS011;52726;48.852;9.152;2023-04-08T05:19:21;19.52;;;8.95;;
65971;SDS011;52726;48.852;9.152;2023-04-08T05:21:46;14.02;;;8.07;;
65971;SDS011;52726;48.852;9.152;2023-04-08T05:24:12;16.95;;;9.02;;
65971;SDS011;52726;48.852;9.152;2023-04-08T05:26:37;19.70;;;9.77;;
65971;SDS011;52726;48.852;9.152;2023-04-08T05:29:02;15.35;;;8.50;;
65971;SDS011;52726;48.852;9.152;2023-04-08T05:31:28;19.55;;;9.43;;
65971;SDS011;52726;48.852;9.152;2023-04-08T05:33:53;17.55;;;9.15;;
65971;SDS011;52726;48.852;9.152;2023-04-08T05:36:18;19.83;;;10.07;;
65971;SDS011;52726;48.852;9.152;2023-04-08T05:38:44;28.15;;;9.95;;
65971;SDS011;52726;48.852;9.152;2023-04-08T05:41:09;22.85;;;9.10;;
65971;SDS011;52726;48.852;9.152;2023-04-08T05:43:35;15.88;;;8.30;;
65971;SDS011;52726;48.852;9.152;2023-04-08T05:46:07;22.83;;;9.70;;
65971;SDS011;52726;48.852;9.152;2023-04-08T05:48:35;17.45;;;9.23;;
65971;SDS011;52726;48.852;9.152;2023-04-08T05:51:00;15.20;;;7.80;;
65971;SDS011;52726;48.852;9.152;2023-04-08T05:53:26;21.90;;;9.63;;
65971;SDS011;52726;48.852;9.152;2023-04-08T05:55:51;21.00;;;9.23;;
65971;SDS011;52726;48.852;9.152;2023-04-08T05:58:16;21.50;;;9.30;;
65971;SDS011;52726;48.852;9.152;2023-04-08T06:00:42;18.90;;;10.35;;
65971;SDS011;52726;48.852;9.152;2023-04-08T06:03:07;19.75;;;9.27;;
65971;SDS011;52726;48.852;9.152;2023-04-08T06:05:32;17.15;;;8.65;;
65971;SDS011;52726;48.852;9.152;2023-04-08T06:07:58;19.08;;;9.10;;
65971;SDS011;52726;48.852;9.152;2023-04-08T06:10:23;18.55;;;9.45;;
65971;SDS011;52726;48.852;9.152;2023-04-08T06:12:48;16.08;;;8.95;;
65971;SDS011;52726;48.852;9.152;2023-04-08T06:15:14;17.02;;;8.88;;
65971;SDS011;52726;48.852;9.152;2023-04-08T06:17:40;20.33;;;9.68;;
65971;SDS011;52726;48.852;9.152;2023-04-08T06:20:05;16.58;;;9.32;;
65971;SDS011;52726;48.852;9.152;2023-04-08T06:22:33;21.00;;;10.85;;
65971;SDS011;52726;48.852;9.152;2023-04-08T06:24:58;17.85;;;10.18;;
65971;SDS011;52726;48.852;9.152;2023-04-08T06:27:23;17.35;;;9.68;;
65971;SDS011;52726;48.852;9.152;2023-04-08T06:29:49;15.63;;;7.95;;
65971;SDS011;52726;48.852;9.152;2023-04-08T06:32:15;14.10;;;8.48;;
65971;SDS011;52726;48.852;9.152;2023-04-08T06:34:43;15.57;;;8.80;;
65971;SDS011;52726;48.852;9.152;2023-04-08T06:37:09;15.90;;;7.97;;
65971;SDS011;52726;48.852;9.152;2023-04-08T06:39:34;17.20;;;9.48;;
65971;SDS011;52726;48.852;9.152;2023-04-08T06:42:00;18.83;;;9.63;;
65971;SDS011;52726;48.852;9.152;2023-04-08T06:44:25;15.43;;;8.15;;
65971;SDS011;52726;48.852;9.152;2023-04-08T06:46:50;19.45;;;9.48;;
65971;SDS011;52726;48.852;9.152;2023-04-08T06:49:16;18.05;;;9.70;;
65971;SDS011;52726;48.852;9.152;2023-04-08T06:51:41;18.02;;;8.70;;
65971;SDS011;52726;48.852;9.152;2023-04-08T06:54:06;19.02;;;9.50;;
65971;SDS011;52726;48.852;9.152;2023-04-08T06:56:34;12.93;;;8.25;;
65971;SDS011;52726;48.852;9.152;2023-04-08T06:58:59;18.95;;;8.88;;
65971;SDS011;52726;48.852;9.152;2023-04-08T07:01:25;14.80;;;9.05;;
65971;SDS011;52726;48.852;9.152;2023-04-08T07:03:50;12.85;;;8.10;;
65971;SDS011;52726;48.852;9.152;2023-04-08T07:06:16;18.02;;;9.43;;
65971;SDS011;52726;48.852;9.152;2023-04-08T07:08:41;20.80;;;8.80;;
65971;SDS011;52726;48.852;9.152;2023-04-08T07:11:06;19.92;;;9.70;;
65971;SDS011;52726;48.852;9.152;2023-04-08T07:13:32;21.73;;;9.05;;
65971;SDS011;52726;48.852;9.152;2023-04-08T07:15:57;20.13;;;9.15;;
65971;SDS011;52726;48.852;9.152;2023-04-08T07:18:23;14.93;;;7.75;;
65971;SDS011;52726;48.852;9.152;2023-04-08T07:20:52;16.58;;;8.55;;
65971;SDS011;52726;48.852;9.152;2023-04-08T07:23:20;18.15;;;9.43;;
65971;SDS011;52726;48.852;9.152;2023-04-08T07:25:46;15.82;;;8.05;;
65971;SDS011;52726;48.852;9.152;2023-04-08T07:28:11;18.00;;;8.70;;
65971;SDS011;52726;48.852;9.152;2023-04-08T07:30:37;13.38;;;8.20;;
65971;SDS011;52726;48.852;9.152;2023-04-08T07:33:02;13.43;;;7.35;;
65971;SDS011;52726;48.852;9.152;2023-04-08T07:35:28;13.68;;;8.02;;
65971;SDS011;52726;48.852;9.152;2023-04-08T07:37:55;14.73;;;7.93;;
65971;SDS011;52726;48.852;9.152;2023-04-08T07:40:21;14.20;;;7.53;;
65971;SDS011;52726;48.852;9.152;2023-04-08T07:42:47;13.88;;;8.18;;
65971;SDS011;52726;48.852;9.152;2023-04-08T07:45:13;12.18;;;6.80;;
65971;SDS011;52726;48.852;9.152;2023-04-08T07:47:38;10.85;;;6.95;;
65971;SDS011;52726;48.852;9.152;2023-04-08T07:50:04;11.25;;;7.40;;
65971;SDS011;52726;48.852;9.152;2023-04-08T07:52:30;11.50;;;7.00;;
65971;SDS011;52726;48.852;9.152;2023-04-08T07:54:56;10.02;;;6.28;;
65971;SDS011;52726;48.852;9.152;2023-04-08T07:57:21;10.60;;;6.88;;
65971;SDS011;52726;48.852;9.152;2023-04-08T07:59:46;12.48;;;6.70;;
65971;SDS011;52726;48.852;9.152;2023-04-08T08:02:12;11.32;;;6.60;;
65971;SDS011;52726;48.852;9.152;2023-04-08T08:04:37;11.30;;;7.47;;
65971;SDS011;52726;48.852;9.152;2023-04-08T08:07:02;11.05;;;6.45;;
65971;SDS011;52726;48.852;9.152;2023-04-08T08:09:28;12.57;;;7.40;;
65971;SDS011;52726;48.852;9.152;2023-04-08T08:11:53;10.63;;;6.45;;
65971;SDS011;52726;48.852;9.152;2023-04-08T08:14:19;12.38;;;7.35;;
65971;SDS011;52726;48.852;9.152;2023-04-08T08:16:44;13.25;;;7.60;;
65971;SDS011;52726;48.852;9.152;2023-04-08T08:19:09;11.63;;;6.47;;
65971;SDS011;52726;48.852;9.152;2023-04-08T08:21:36;9.82;;;7.03;;
65971;SDS011;52726;48.852;9.152;2023-04-08T08:24:01;13.80;;;6.70;;
65971;SDS011;52726;48.852;9.152;2023-04-08T08:26:27;12.10;;;6.50;;
65971;SDS011;52726;48.852;9.152;2023-04-08T08:28:52;14.68;;;7.15;;
65971;SDS011;52726;48.852;9.152;2023-04-08T08:31:21;10.30;;;6.63;;
65971;SDS011;52726;48.852;9.152;2023-04-08T08:33:49;11.60;;;7.20;;
65971;SDS011;52726;48.852;9.152;2023-04-08T08:36:14;10.02;;;6.32;;
65971;SDS011;52726;48.852;9.152;2023-04-08T08:38:40;11.32;;;6.82;;
65971;SDS011;52726;48.852;9.152;2023-04-08T08:41:05;10.30;;;6.80;;
65971;SDS011;52726;48.852;9.152;2023-04-08T08:43:30;11.63;;;7.40;;
65971;SDS011;52726;48.852;9.152;2023-04-08T08:45:57;9.68;;;6.57;;
65971;SDS011;52726;48.852;9.152;2023-04-08T08:48:23;8.77;;;6.57;;
65971;SDS011;52726;48.852;9.152;2023-04-08T08:50:49;10.32;;;6.07;;
65971;SDS011;52726;48.852;9.152;2023-04-08T08:53:15;9.75;;;6.32;;
65971;SDS011;52726;48.852;9.152;2023-04-08T08:55:40;11.43;;;7.53;;
65971;SDS011;52726;48.852;9.152;2023-04-08T08:58:06;12.18;;;6.57;;
65971;SDS011;52726;48.852;9.152;2023-04-08T09:08:24;11.45;;;6.50;;
65971;SDS011;52726;48.852;9.152;2023-04-08T09:10:54;11.68;;;6.55;;
65971;SDS011;52726;48.852;9.152;2023-04-08T09:13:23;12.20;;;7.53;;
65971;SDS011;52726;48.852;9.152;2023-04-08T09:16:10;12.13;;;7.13;;
65971;SDS011;52726;48.852;9.152;2023-04-08T09:18:36;8.57;;;6.18;;
65971;SDS011;52726;48.852;9.152;2023-04-08T09:21:02;9.52;;;6.65;;
65971;SDS011;52726;48.852;9.152;2023-04-08T09:26:24;8.98;;;6.32;;
65971;SDS011;52726;48.852;9.152;2023-04-08T09:29:05;12.80;;;6.53;;
65971;SDS011;52726;48.852;9.152;2023-04-08T09:31:35;12.35;;;6.80;;
65971;SDS011;52726;48.852;9.152;2023-04-08T09:34:11;9.73;;;6.55;;
65971;SDS011;52726;48.852;9.152;2023-04-08T09:36:41;8.68;;;6.15;;
65971;SDS011;52726;48.852;9.152;2023-04-08T09:39:08;13.45;;;7.32;;
65971;SDS011;52726;48.852;9.152;2023-04-08T09:41:34;11.02;;;6.97;;
65971;SDS011;52726;48.852;9.152;2023-04-08T09:44:02;9.85;;;6.47;;
65971;SDS011;52726;48.852;9.152;2023-04-08T09:46:46;11.45;;;7.13;;
65971;SDS011;52726;48.852;9.152;2023-04-08T09:52:07;11.95;;;6.97;;
65971;SDS011;52726;48.852;9.152;2023-04-08T09:54:43;11.65;;;6.93;;
65971;SDS011;52726;48.852;9.152;2023-04-08T10:00:10;10.43;;;6.78;;
65971;SDS011;52726;48.852;9.152;2023-04-08T10:05:21;12.73;;;6.63;;
65971;SDS011;52726;48.852;9.152;2023-04-08T10:07:50;10.18;;;5.88;;
65971;SDS011;52726;48.852;9.152;2023-04-08T10:10:16;10.40;;;6.97;;
65971;SDS011;52726;48.852;9.152;2023-04-08T10:12:43;11.30;;;6.30;;
65971;SDS011;52726;48.852;9.152;2023-04-08T10:17:50;12.90;;;6.60;;
65971;SDS011;52726;48.852;9.152;2023-04-08T10:23:01;11.02;;;6.45;;
65971;SDS011;52726;48.852;9.152;2023-04-08T10:25:28;8.68;;;6.20;;
65971;SDS011;52726;48.852;9.152;2023-04-08T10:27:55;11.23;;;7.13;;
65971;SDS011;52726;48.852;9.152;2023-04-08T10:32:52;10.63;;;5.57;;
65971;SDS011;52726;48.852;9.152;2023-04-08T10:35:36;9.20;;;5.00;;
65971;SDS011;52726;48.852;9.152;2023-04-08T10:38:07;9.40;;;5.70;;
65971;SDS011;52726;48.852;9.152;2023-04-08T10:40:36;9.85;;;5.95;;
65971;SDS011;52726;48.852;9.152;2023-04-08T10:43:06;10.45;;;5.90;;
65971;SDS011;52726;48.852;9.152;2023-04-08T10:45:33;11.57;;;6.28;;
65971;SDS011;52726;48.852;9.152;2023-04-08T10:48:12;9.38;;;6.13;;
65971;SDS011;52726;48.852;9.152;2023-04-08T10:50:38;10.45;;;6.05;;
65971;SDS011;52726;48.852;9.152;2023-04-08T10:53:04;9.00;;;5.80;;
65971;SDS011;52726;48.852;9.152;2023-04-08T10:55:29;10.55;;;6.20;;
65971;SDS011;52726;48.852;9.152;2023-04-08T10:57:55;13.52;;;6.88;;
65971;SDS011;52726;48.852;9.152;2023-04-08T11:00:36;8.90;;;5.78;;
65971;SDS011;52726;48.852;9.152;2023-04-08T11:03:04;11.10;;;6.78;;
65971;SDS011;52726;48.852;9.152;2023-04-08T11:05:31;12.88;;;6.35;;
65971;SDS011;52726;48.852;9.152;2023-04-08T11:07:58;9.45;;;5.32;;
65971;SDS011;52726;48.852;9.152;2023-04-08T11:10:27;10.57;;;6.07;;
65971;SDS011;52726;48.852;9.152;2023-04-08T11:12:56;13.05;;;5.85;;
65971;SDS011;52726;48.852;9.152;2023-04-08T11:15:25;9.52;;;5.28;;
65971;SDS011;52726;48.852;9.152;2023-04-08T11:17:54;9.30;;;5.55;;
65971;SDS011;52726;48.852;9.152;2023-04-08T11:20:20;11.10;;;6.35;;
65971;SDS011;52726;48.852;9.152;2023-04-08T11:22:46;8.38;;;6.07;;
65971;SDS011;52726;48.852;9.152;2023-04-08T11:25:12;9.00;;;5.65;;
65971;SDS011;52726;48.852;9.152;2023-04-08T11:27:38;11.05;;;5.93;;
65971;SDS011;52726;48.852;9.152;2023-04-08T11:30:05;8.18;;;5.70;;
65971;SDS011;52726;48.852;9.152;2023-04-08T11:32:31;9.85;;;6.13;;
65971;SDS011;52726;48.852;9.152;2023-04-08T11:35:00;9.73;;;5.97;;
65971;SDS011;52726;48.852;9.152;2023-04-08T11:37:35;10.00;;;6.57;;
65971;SDS011;52726;48.852;9.152;2023-04-08T11:40:08;12.48;;;6.25;;
65971;SDS011;52726;48.852;9.152;2023-04-08T11:42:34;8.98;;;5.88;;
65971;SDS011;52726;48.852;9.152;2023-04-08T11:45:00;8.18;;;5.97;;
65971;SDS011;52726;48.852;9.152;2023-04-08T11:47:31;9.73;;;6.07;;
65971;SDS011;52726;48.852;9.152;2023-04-08T11:49:57;12.93;;;5.60;;
65971;SDS011;52726;48.852;9.152;2023-04-08T11:52:45;10.38;;;6.13;;
65971;SDS011;52726;48.852;9.152;2023-04-08T11:55:10;7.70;;;5.13;;
65971;SDS011;52726;48.852;9.152;2023-04-08T11:57:37;10.05;;;6.38;;
65971;SDS011;52726;48.852;9.152;2023-04-08T12:00:04;8.55;;;6.18;;
65971;SDS011;52726;48.852;9.152;2023-04-08T12:02:30;9.43;;;6.15;;
65971;SDS011;52726;48.852;9.152;2023-04-08T12:04:56;11.45;;;6.45;;
65971;SDS011;52726;48.852;9.152;2023-04-08T12:07:21;9.50;;;5.95;;
65971;SDS011;52726;48.852;9.152;2023-04-08T12:09:46;8.32;;;5.63;;
65971;SDS011;52726;48.852;9.152;2023-04-08T12:12:12;10.65;;;6.95;;
65971;SDS011;52726;48.852;9.152;2023-04-08T12:14:37;13.20;;;6.32;;
65971;SDS011;52726;48.852;9.152;2023-04-08T12:17:04;9.77;;;5.97;;
65971;SDS011;52726;48.852;9.152;2023-04-08T12:19:30;9.50;;;5.40;;
65971;SDS011;52726;48.852;9.152;2023-04-08T12:21:56;9.23;;;5.68;;
65971;SDS011;52726;48.852;9.152;2023-04-08T12:24:21;10.05;;;5.82;;
65971;SDS011;52726;48.852;9.152;2023-04-08T12:26:47;9.43;;;5.63;;
65971;SDS011;52726;48.852;9.152;2023-04-08T12:29:12;10.88;;;5.63;;
65971;SDS011;52726;48.852;9.152;2023-04-08T12:31:37;10.73;;;5.95;;
65971;SDS011;52726;48.852;9.152;2023-04-08T12:34:03;15.13;;;6.45;;
65971;SDS011;52726;48.852;9.152;2023-04-08T12:36:28;8.38;;;5.50;;
65971;SDS011;52726;48.852;9.152;2023-04-08T12:38:53;9.60;;;5.75;;
65971;SDS011;52726;48.852;9.152;2023-04-08T12:41:19;9.60;;;6.28;;
65971;SDS011;52726;48.852;9.152;2023-04-08T12:43:44;8.98;;;5.82;;
65971;SDS011;52726;48.852;9.152;2023-04-08T12:46:10;11.45;;;6.22;;
65971;SDS011;52726;48.852;9.152;2023-04-08T12:48:35;9.98;;;6.05;;
65971;SDS011;52726;48.852;9.152;2023-04-08T12:51:01;10.98;;;6.32;;
65971;SDS011;52726;48.852;9.152;2023-04-08T12:53:27;14.18;;;6.35;;
65971;SDS011;52726;48.852;9.152;2023-04-08T12:55:52;10.15;;;6.07;;
65971;SDS011;52726;48.852;9.152;2023-04-08T12:58:21;9.23;;;6.13;;
65971;SDS011;52726;48.852;9.152;2023-04-08T13:00:47;8.15;;;6.28;;
65971;SDS011;52726;48.852;9.152;2023-04-08T13:03:13;12.63;;;5.95;;
65971;SDS011;52726;48.852;9.152;2023-04-08T13:05:41;8.88;;;5.78;;
65971;SDS011;52726;48.852;9.152;2023-04-08T13:08:06;10.20;;;5.68;;
65971;SDS011;52726;48.852;9.152;2023-04-08T13:10:32;9.38;;;5.53;;
65971;SDS011;52726;48.852;9.152;2023-04-08T13:12:57;10.10;;;6.85;;
65971;SDS011;52726;48.852;9.152;2023-04-08T13:15:22;10.07;;;6.53;;
65971;SDS011;52726;48.852;9.152;2023-04-08T13:17:48;8.88;;;6.25;;
65971;SDS011;52726;48.852;9.152;2023-04-08T13:20:13;11.38;;;6.30;;
65971;SDS011;52726;48.852;9.152;2023-04-08T13:22:39;10.45;;;6.25;;
65971;SDS011;52726;48.852;9.152;2023-04-08T13:25:05;8.18;;;5.85;;
65971;SDS011;52726;48.852;9.152;2023-04-08T13:27:31;7.97;;;5.65;;
65971;SDS011;52726;48.852;9.152;2023-04-08T13:29:57;7.40;;;5.65;;
65971;SDS011;52726;48.852;9.152;2023-04-08T13:32:22;8.27;;;6.05;;
65971;SDS011;52726;48.852;9.152;2023-04-08T13:34:47;9.50;;;6.03;;
65971;SDS011;52726;48.852;9.152;2023-04-08T13:37:13;8.65;;;5.70;;
65971;SDS011;52726;48.852;9.152;2023-04-08T13:39:38;9.05;;;5.95;;
65971;SDS011;52726;48.852;9.152;2023-04-08T13:42:03;8.35;;;5.57;;
65971;SDS011;52726;48.852;9.152;2023-04-08T13:44:29;9.98;;;6.00;;
65971;SDS011;52726;48.852;9.152;2023-04-08T13:46:54;7.60;;;5.72;;
65971;SDS011;52726;48.852;9.152;2023-04-08T13:49:20;8.82;;;6.60;;
65971;SDS011;52726;48.852;9.152;2023-04-08T13:51:45;10.27;;;6.43;;
65971;SDS011;52726;48.852;9.152;2023-04-08T13:54:10;7.20;;;4.93;;
65971;SDS011;52726;48.852;9.152;2023-04-08T13:56:35;9.35;;;6.43;;
65971;SDS011;52726;48.852;9.152;2023-04-08T13:59:01;7.63;;;5.78;;
65971;SDS011;52726;48.852;9.152;2023-04-08T14:01:26;9.13;;;5.30;;
65971;SDS011;52726;48.852;9.152;2023-04-08T14:03:52;7.47;;;5.20;;
65971;SDS011;52726;48.852;9.152;2023-04-08T14:06:17;7.93;;;5.32;;
65971;SDS011;52726;48.852;9.152;2023-04-08T14:08:42;8.20;;;5.80;;
65971;SDS011;52726;48.852;9.152;2023-04-08T14:11:08;8.88;;;5.70;;
65971;SDS011;52726;48.852;9.152;2023-04-08T14:13:33;8.57;;;5.82;;
65971;SDS011;52726;48.852;9.152;2023-04-08T14:15:58;8.98;;;5.97;;
65971;SDS011;52726;48.852;9.152;2023-04-08T14:18:26;8.70;;;5.13;;
65971;SDS011;52726;48.852;9.152;2023-04-08T14:20:51;7.95;;;5.80;;
65971;SDS011;52726;48.852;9.152;2023-04-08T14:23:17;8.10;;;5.10;;
65971;SDS011;52726;48.852;9.152;2023-04-08T14:25:42;7.72;;;4.82;;
65971;SDS011;52726;48.852;9.152;2023-04-08T14:28:08;7.30;;;5.13;;
65971;SDS011;52726;48.852;9.152;2023-04-08T14:30:33;8.40;;;5.70;;
65971;SDS011;52726;48.852;9.152;2023-04-08T14:33:00;10.77;;;5.68;;
65971;SDS011;52726;48.852;9.152;2023-04-08T14:35:25;7.32;;;5.30;;
65971;SDS011;52726;48.852;9.152;2023-04-08T14:37:51;8.02;;;5.55;;
65971;SDS011;52726;48.852;9.152;2023-04-08T14:40:16;8.40;;;5.70;;
65971;SDS011;52726;48.852;9.152;2023-04-08T14:42:42;7.93;;;5.28;;
65971;SDS011;52726;48.852;9.152;2023-04-08T14:45:09;6.72;;;5.22;;
65971;SDS011;52726;48.852;9.152;2023-04-08T14:47:35;6.28;;;4.05;;
65971;SDS011;52726;48.852;9.152;2023-04-08T14:50:00;7.50;;;4.68;;
65971;SDS011;52726;48.852;9.152;2023-04-08T14:52:26;13.15;;;4.70;;
65971;SDS011;52726;48.852;9.152;2023-04-08T14:54:51;4.95;;;3.90;;
65971;SDS011;52726;48.852;9.152;2023-04-08T14:57:17;5.55;;;4.20;;
65971;SDS011;52726;48.852;9.152;2023-04-08T14:59:43;6.85;;;3.97;;
65971;SDS011;52726;48.852;9.152;2023-04-08T15:02:09;5.60;;;3.90;;
65971;SDS011;52726;48.852;9.152;2023-04-08T15:04:34;6.78;;;3.80;;
65971;SDS011;52726;48.852;9.152;2023-04-08T15:07:00;10.00;;;4.97;;
65971;SDS011;52726;48.852;9.152;2023-04-08T15:09:26;7.18;;;3.92;;
65971;SDS011;52726;48.852;9.152;2023-04-08T15:11:52;5.43;;;3.50;;
65971;SDS011;52726;48.852;9.152;2023-04-08T15:14:17;6.47;;;3.40;;